sensor_id;sensor_type;location;lat;lon;timestamp;pressure;altitude;pressure_sealevel;temperature;humidity
29549;BME280;16487;53.094;8.800;2023-04-01T00:01:36;101694.09;;;10.18;100.00
29549;BME280;16487;53.094;8.800;2023-04-01T00:04:04;101709.16;;;10.20;100.00
29549;BME280;16487;53.094;8.800;2023-04-01T00:06:31;101733.09;;;10.18;100.00
29549;BME280;16487;53.094;8.800;2023-04-01T00:08:59;101741.84;;;10.16;100.00
29549;BME280;16487;53.094;8.800;2023-04-01T00:11:28;101760.94;;;10.18;100.00
29549;BME280;16487;53.094;8.800;2023-04-01T00:13:55;101767.31;;;10.15;100.00
29549;BME280;16487;53.094;8.800;2023-04-01T00:16:23;101792.00;;;10.13;100.00
29549;BME280;16487;53.094;8.800;2023-04-01T00:18:51;101806.31;;;10.15;100.00
29549;BME280;16487;53.094;8.800;2023-04-01T00:21:19;101816.66;;;10.18;100.00
29549;BME280;16487;53.094;8.800;2023-04-01T00:23:47;101836.53;;;10.16;100.00
29549;BME280;16487;53.094;8.800;2023-04-01T00:26:14;101854.06;;;10.17;100.00
29549;BME280;16487;53.094;8.800;2023-04-01T00:28:43;101871.53;;;10.21;100.00
29549;BME280;16487;53.094;8.800;2023-04-01T00:31:11;101885.09;;;10.19;100.00
29549;BME280;16487;53.094;8.800;2023-04-01T00:33:39;101916.56;;;10.16;100.00
29549;BME280;16487;53.094;8.800;2023-04-01T00:36:08;101928.91;;;10.15;100.00
29549;BME280;16487;53.094;8.800;2023-04-01T00:38:37;101943.59;;;10.19;100.00
29549;BME280;16487;53.094;8.800;2023-04-01T00:41:05;101964.69;;;10.16;100.00
29549;BME280;16487;53.094;8.800;2023-04-01T00:43:33;101985.38;;;10.19;100.00
29549;BME280;16487;53.094;8.800;2023-04-01T00:46:02;101996.53;;;10.19;100.00
29549;BME280;16487;53.094;8.800;2023-04-01T00:48:32;102013.28;;;10.15;100.00
29549;BME280;16487;53.094;8.800;2023-04-01T00:51:04;102034.75;;;10.15;100.00
29549;BME280;16487;53.094;8.800;2023-04-01T00:53:36;102044.31;;;10.17;100.00
29549;BME280;16487;53.094;8.800;2023-04-01T00:56:09;102059.41;;;10.16;100.00
29549;BME280;16487;53.094;8.800;2023-04-01T00:58:41;102074.16;;;10.17;100.00
29549;BME280;16487;53.094;8.800;2023-04-01T01:01:10;102087.25;;;10.20;100.00
29549;BME280;16487;53.094;8.800;2023-04-01T01:03:38;102102.41;;;10.19;100.00
29549;BME280;16487;53.094;8.800;2023-04-01T01:06:11;102116.34;;;10.19;100.00
29549;BME280;16487;53.094;8.800;2023-04-01T01:08:57;102115.94;;;10.17;100.00
29549;BME280;16487;53.094;8.800;2023-04-01T01:11:35;102135.84;;;10.19;100.00
29549;BME280;16487;53.094;8.800;2023-04-01T01:14:25;102148.56;;;10.20;100.00
29549;BME280;16487;53.094;8.800;2023-04-01T01:17:00;102158.13;;;10.19;100.00
29549;BME280;16487;53.094;8.800;2023-04-01T01:19:48;102169.66;;;10.21;100.00
29549;BME280;16487;53.094;8.800;2023-04-01T01:22:38;102181.22;;;10.19;100.00
29549;BME280;16487;53.094;8.800;2023-04-01T01:25:29;102191.56;;;10.19;100.00
29549;BME280;16487;53.094;8.800;2023-04-01T01:28:13;102204.69;;;10.18;100.00
29549;BME280;16487;53.094;8.800;2023-04-01T01:30:49;102216.25;;;10.17;100.00
29549;BME280;16487;53.094;8.800;2023-04-01T01:33:44;102234.56;;;10.18;100.00
29549;BME280;16487;53.094;8.800;2023-04-01T01:36:15;102244.91;;;10.17;100.00
29549;BME280;16487;53.094;8.800;2023-04-01T01:38:44;102256.06;;;10.14;100.00
29549;BME280;16487;53.094;8.800;2023-04-01T01:41:15;102278.34;;;10.17;100.00
29549;BME280;16487;53.094;8.800;2023-04-01T01:43:46;102281.53;;;10.19;100.00
29549;BME280;16487;53.094;8.800;2023-04-01T01:46:17;102296.63;;;10.22;100.00
29549;BME280;16487;53.094;8.800;2023-04-01T01:48:47;102310.16;;;10.20;100.00
29549;BME280;16487;53.094;8.800;2023-04-01T01:51:17;102310.97;;;10.17;100.00
29549;BME280;16487;53.094;8.800;2023-04-01T01:53:45;102325.69;;;10.17;100.00
29549;BME280;16487;53.094;8.800;2023-04-01T01:56:14;102343.59;;;10.23;100.00
29549;BME280;16487;53.094;8.800;2023-04-01T01:58:45;102352.34;;;10.18;100.00
29549;BME280;16487;53.094;8.800;2023-04-01T02:01:19;102362.72;;;10.18;100.00
29549;BME280;16487;53.094;8.800;2023-04-01T02:03:49;102378.25;;;10.19;100.00
29549;BME280;16487;53.094;8.800;2023-04-01T02:06:22;102420.84;;;10.16;100.00
29549;BME280;16487;53.094;8.800;2023-04-01T02:08:52;102425.19;;;10.17;100.00
29549;BME280;16487;53.094;8.800;2023-04-01T02:11:27;102433.56;;;10.17;100.00
29549;BME280;16487;53.094;8.800;2023-04-01T02:13:58;102448.69;;;10.16;100.00
29549;BME280;16487;53.094;8.800;2023-04-01T02:16:31;102462.22;;;10.17;100.00
29549;BME280;16487;53.094;8.800;2023-04-01T02:19:00;102471.75;;;10.16;100.00
29549;BME280;16487;53.094;8.800;2023-04-01T02:21:32;102487.72;;;10.16;100.00
29549;BME280;16487;53.094;8.800;2023-04-01T02:24:01;102484.91;;;10.12;100.00
29549;BME280;16487;53.094;8.800;2023-04-01T02:26:31;102507.22;;;10.16;100.00
29549;BME280;16487;53.094;8.800;2023-04-01T02:28:59;102509.19;;;10.12;100.00
29549;BME280;16487;53.094;8.800;2023-04-01T02:31:28;102517.16;;;10.10;100.00
29549;BME280;16487;53.094;8.800;2023-04-01T02:33:57;102530.69;;;10.11;100.00
29549;BME280;16487;53.094;8.800;2023-04-01T02:36:24;102521.91;;;10.13;100.00
29549;BME280;16487;53.094;8.800;2023-04-01T02:38:54;102557.34;;;10.12;100.00
29549;BME280;16487;53.094;8.800;2023-04-01T02:41:22;102563.34;;;10.11;100.00
29549;BME280;16487;53.094;8.800;2023-04-01T02:43:50;102584.00;;;10.10;100.00
29549;BME280;16487;53.094;8.800;2023-04-01T02:46:17;102593.56;;;10.09;100.00
29549;BME280;16487;53.094;8.800;2023-04-01T02:48:45;102608.66;;;10.08;100.00
29549;BME280;16487;53.094;8.800;2023-04-01T02:51:12;102615.00;;;10.05;100.00
29549;BME280;16487;53.094;8.800;2023-04-01T02:53:40;102622.97;;;10.03;100.00
29549;BME280;16487;53.094;8.800;2023-04-01T02:56:09;102633.72;;;10.04;100.00
29549;BME280;16487;53.094;8.800;2023-04-01T02:58:36;102644.47;;;10.06;100.00
29549;BME280;16487;53.094;8.800;2023-04-01T03:01:04;102649.66;;;10.04;100.00
29549;BME280;16487;53.094;8.800;2023-04-01T03:03:31;102668.75;;;10.02;100.00
29549;BME280;16487;53.094;8.800;2023-04-01T03:06:04;102677.09;;;10.02;100.00
29549;BME280;16487;53.094;8.800;2023-04-01T03:08:32;102691.41;;;10.00;100.00
29549;BME280;16487;53.094;8.800;2023-04-01T03:10:59;102699.78;;;10.00;100.00
29549;BME280;16487;53.094;8.800;2023-04-01T03:13:28;102708.91;;;10.01;100.00
29549;BME280;16487;53.094;8.800;2023-04-01T03:15:55;102722.09;;;10.04;100.00
29549;BME280;16487;53.094;8.800;2023-04-01T03:18:23;102729.19;;;9.98;100.00
29549;BME280;16487;53.094;8.800;2023-04-01T03:20:50;102731.56;;;9.96;100.00
29549;BME280;16487;53.094;8.800;2023-04-01T03:23:18;102739.94;;;9.96;100.00
29549;BME280;16487;53.094;8.800;2023-04-01T03:25:45;102755.06;;;9.95;100.00
29549;BME280;16487;53.094;8.800;2023-04-01T03:28:12;102758.25;;;9.93;100.00
29549;BME280;16487;53.094;8.800;2023-04-01T03:30:41;102778.16;;;9.95;100.00
29549;BME280;16487;53.094;8.800;2023-04-01T03:33:09;102778.13;;;9.92;100.00
29549;BME280;16487;53.094;8.800;2023-04-01T03:35:36;102792.84;;;9.92;100.00
29549;BME280;16487;53.094;8.800;2023-04-01T03:38:04;102804.78;;;9.93;100.00
29549;BME280;16487;53.094;8.800;2023-04-01T03:40:31;102815.09;;;9.89;100.00
29549;BME280;16487;53.094;8.800;2023-04-01T03:42:58;102824.28;;;9.93;100.00
29549;BME280;16487;53.094;8.800;2023-04-01T03:45:26;102839.00;;;9.90;100.00
29549;BME280;16487;53.094;8.800;2023-04-01T03:47:55;102851.72;;;9.91;100.00
29549;BME280;16487;53.094;8.800;2023-04-01T03:50:22;102871.22;;;9.91;100.00
29549;BME280;16487;53.094;8.800;2023-04-01T03:52:49;102872.41;;;9.90;100.00
29549;BME280;16487;53.094;8.800;2023-04-01T03:55:17;102884.34;;;9.87;100.00
29549;BME280;16487;53.094;8.800;2023-04-01T03:57:44;102890.28;;;9.85;100.00
29549;BME280;16487;53.094;8.800;2023-04-01T04:00:18;102900.63;;;9.85;100.00
29549;BME280;16487;53.094;8.800;2023-04-01T04:02:49;102906.19;;;9.85;100.00
29549;BME280;16487;53.094;8.800;2023-04-01T04:05:23;102921.28;;;9.84;100.00
29549;BME280;16487;53.094;8.800;2023-04-01T04:07:52;102940.78;;;9.84;100.00
29549;BME280;16487;53.094;8.800;2023-04-01T04:10:19;102942.81;;;9.83;100.00
29549;BME280;16487;53.094;8.800;2023-04-01T04:12:48;102945.16;;;9.81;100.00
29549;BME280;16487;53.094;8.800;2023-04-01T04:15:16;102961.09;;;9.84;100.00
29549;BME280;16487;53.094;8.800;2023-04-01T04:17:44;102962.69;;;9.85;100.00
29549;BME280;16487;53.094;8.800;2023-04-01T04:20:12;102967.06;;;9.83;100.00
29549;BME280;16487;53.094;8.800;2023-04-01T04:22:40;102979.75;;;9.80;100.00
29549;BME280;16487;53.094;8.800;2023-04-01T04:25:08;102979.38;;;9.78;100.00
29549;BME280;16487;53.094;8.800;2023-04-01T04:27:36;102989.72;;;9.81;100.00
29549;BME280;16487;53.094;8.800;2023-04-01T04:30:09;102997.66;;;9.79;100.00
29549;BME280;16487;53.094;8.800;2023-04-01T04:32:37;102964.63;;;9.78;100.00
29549;BME280;16487;53.094;8.800;2023-04-01T04:35:05;102937.16;;;9.76;100.00
29549;BME280;16487;53.094;8.800;2023-04-01T04:37:33;103010.34;;;9.77;100.00
29549;BME280;16487;53.094;8.800;2023-04-01T04:40:02;103031.03;;;9.76;100.00
29549;BME280;16487;53.094;8.800;2023-04-01T04:42:30;103037.81;;;9.75;100.00
29549;BME280;16487;53.094;8.800;2023-04-01T04:45:05;103060.88;;;9.75;100.00
29549;BME280;16487;53.094;8.800;2023-04-01T04:47:32;103060.81;;;9.72;100.00
29549;BME280;16487;53.094;8.800;2023-04-01T04:50:00;103074.00;;;9.75;100.00
29549;BME280;16487;53.094;8.800;2023-04-01T04:52:28;103089.47;;;9.72;100.00
29549;BME280;16487;53.094;8.800;2023-04-01T04:54:55;103105.81;;;9.74;100.00
29549;BME280;16487;53.094;8.800;2023-04-01T04:57:24;103102.25;;;9.77;100.00
29549;BME280;16487;53.094;8.800;2023-04-01T04:59:54;103125.34;;;9.77;100.00
29549;BME280;16487;53.094;8.800;2023-04-01T05:02:33;103122.94;;;9.76;100.00
29549;BME280;16487;53.094;8.800;2023-04-01T05:05:02;103131.72;;;9.78;100.00
29549;BME280;16487;53.094;8.800;2023-04-01T05:07:30;103143.28;;;9.80;100.00
29549;BME280;16487;53.094;8.800;2023-04-01T05:09:57;103152.00;;;9.75;100.00
29549;BME280;16487;53.094;8.800;2023-04-01T05:12:26;103166.34;;;9.80;100.00
29549;BME280;16487;53.094;8.800;2023-04-01T05:15:02;103172.31;;;9.79;100.00
29549;BME280;16487;53.094;8.800;2023-04-01T05:17:30;103181.53;;;9.83;100.00
29549;BME280;16487;53.094;8.800;2023-04-01T05:19:57;103212.59;;;9.85;100.00
29549;BME280;16487;53.094;8.800;2023-04-01T05:22:25;103218.16;;;9.85;100.00
29549;BME280;16487;53.094;8.800;2023-04-01T05:24:53;103226.56;;;9.88;100.00
29549;BME280;16487;53.094;8.800;2023-04-01T05:27:20;103222.53;;;9.86;100.00
29549;BME280;16487;53.094;8.800;2023-04-01T05:29:50;103229.31;;;9.85;100.00
29549;BME280;16487;53.094;8.800;2023-04-01T05:32:37;103243.66;;;9.87;100.00
29549;BME280;16487;53.094;8.800;2023-04-01T05:35:05;103251.22;;;9.86;100.00
29549;BME280;16487;53.094;8.800;2023-04-01T05:37:33;103257.94;;;9.85;100.00
29549;BME280;16487;53.094;8.800;2023-04-01T05:40:01;103257.22;;;9.88;100.00
29549;BME280;16487;53.094;8.800;2023-04-01T05:42:29;103276.31;;;9.90;100.00
29549;BME280;16487;53.094;8.800;2023-04-01T05:44:58;103283.88;;;9.89;100.00
29549;BME280;16487;53.094;8.800;2023-04-01T05:47:51;103298.28;;;9.95;100.00
29549;BME280;16487;53.094;8.800;2023-04-01T05:50:19;103285.13;;;9.92;100.00
29549;BME280;16487;53.094;8.800;2023-04-01T05:52:46;103290.69;;;9.92;100.00
29549;BME280;16487;53.094;8.800;2023-04-01T05:55:14;103301.03;;;9.91;100.00
29549;BME280;16487;53.094;8.800;2023-04-01T05:57:41;103301.88;;;9.95;100.00
29549;BME280;16487;53.094;8.800;2023-04-01T06:00:12;103289.94;;;9.95;100.00
29549;BME280;16487;53.094;8.800;2023-04-01T06:02:40;103295.50;;;9.95;100.00
29549;BME280;16487;53.094;8.800;2023-04-01T06:05:14;103315.47;;;10.00;100.00
29549;BME280;16487;53.094;8.800;2023-04-01T06:07:42;103317.50;;;10.03;100.00
29549;BME280;16487;53.094;8.800;2023-04-01T06:10:13;103336.97;;;10.00;100.00
29549;BME280;16487;53.094;8.800;2023-04-01T06:13:00;103325.00;;;9.99;100.00
29549;BME280;16487;53.094;8.800;2023-04-01T06:15:36;103318.22;;;9.97;100.00
29549;BME280;16487;53.094;8.800;2023-04-01T06:18:31;103316.22;;;9.97;100.00
29549;BME280;16487;53.094;8.800;2023-04-01T06:21:10;103336.47;;;9.94;100.00
29549;BME280;16487;53.094;8.800;2023-04-01T06:24:02;103339.38;;;10.01;100.00
29549;BME280;16487;53.094;8.800;2023-04-01T06:26:37;103357.72;;;10.02;100.00
29549;BME280;16487;53.094;8.800;2023-04-01T06:29:30;103351.31;;;10.02;100.00
29549;BME280;16487;53.094;8.800;2023-04-01T06:38:37;103337.78;;;10.00;100.00
29549;BME280;16487;53.094;8.800;2023-04-01T06:41:32;103322.69;;;10.05;100.00
29549;BME280;16487;53.094;8.800;2023-04-01T06:44:14;103319.06;;;10.01;100.00
29549;BME280;16487;53.094;8.800;2023-04-01T06:47:14;103321.09;;;10.04;100.00
29549;BME280;16487;53.094;8.800;2023-04-01T06:50:21;103331.50;;;10.07;100.00
29549;BME280;16487;53.094;8.800;2023-04-01T06:53:12;103305.31;;;10.11;100.00
29549;BME280;16487;53.094;8.800;2023-04-01T06:56:05;103298.94;;;10.11;100.00
29549;BME280;16487;53.094;8.800;2023-04-01T06:58:53;103298.19;;;10.14;100.00
29549;BME280;16487;53.094;8.800;2023-04-01T07:01:23;103296.22;;;10.14;100.00
29549;BME280;16487;53.094;8.800;2023-04-01T07:03:53;103291.03;;;10.16;100.00
29549;BME280;16487;53.094;8.800;2023-04-01T07:06:28;103276.75;;;10.18;100.00
29549;BME280;16487;53.094;8.800;2023-04-01T07:09:00;103256.84;;;10.19;100.00
29549;BME280;16487;53.094;8.800;2023-04-01T07:11:56;103236.88;;;10.14;100.00
29549;BME280;16487;53.094;8.800;2023-04-01T07:15:14;103252.50;;;10.22;100.00
29549;BME280;16487;53.094;8.800;2023-04-01T07:17:43;103244.13;;;10.22;100.00
29549;BME280;16487;53.094;8.800;2023-04-01T07:20:17;103248.16;;;10.24;100.00
29549;BME280;16487;53.094;8.800;2023-04-01T07:22:49;103232.28;;;10.32;100.00
29549;BME280;16487;53.094;8.800;2023-04-01T07:25:31;103217.63;;;10.35;100.00
29549;BME280;16487;53.094;8.800;2023-04-01T07:28:20;103196.41;;;10.27;100.00
29549;BME280;16487;53.094;8.800;2023-04-01T07:31:05;103193.31;;;10.35;100.00
29549;BME280;16487;53.094;8.800;2023-04-01T07:33:41;103144.25;;;10.27;100.00
29549;BME280;16487;53.094;8.800;2023-04-01T07:36:16;103120.78;;;10.32;100.00
29549;BME280;16487;53.094;8.800;2023-04-01T07:38:57;103098.94;;;10.37;100.00
29549;BME280;16487;53.094;8.800;2023-04-01T07:41:51;103062.75;;;10.41;100.00
29549;BME280;16487;53.094;8.800;2023-04-01T07:44:33;103018.91;;;10.38;100.00
29549;BME280;16487;53.094;8.800;2023-04-01T07:47:14;102973.47;;;10.34;100.00
29549;BME280;16487;53.094;8.800;2023-04-01T07:49:53;102937.25;;;10.34;100.00
29549;BME280;16487;53.094;8.800;2023-04-01T07:52:32;102915.34;;;10.36;100.00
29549;BME280;16487;53.094;8.800;2023-04-01T07:55:16;102909.44;;;10.48;100.00
29549;BME280;16487;53.094;8.800;2023-04-01T07:57:50;102892.75;;;10.55;100.00
29549;BME280;16487;53.094;8.800;2023-04-01T08:00:25;102881.66;;;10.66;100.00
29549;BME280;16487;53.094;8.800;2023-04-01T08:03:20;102827.84;;;10.58;100.00
29549;BME280;16487;53.094;8.800;2023-04-01T08:05:55;102793.66;;;10.75;100.00
29549;BME280;16487;53.094;8.800;2023-04-01T08:08:33;102747.81;;;10.76;100.00
29549;BME280;16487;53.094;8.800;2023-04-01T08:11:41;102682.88;;;10.86;100.00
29549;BME280;16487;53.094;8.800;2023-04-01T08:14:52;102619.53;;;10.83;100.00
29549;BME280;16487;53.094;8.800;2023-04-01T08:17:46;102556.16;;;10.80;100.00
29549;BME280;16487;53.094;8.800;2023-04-01T08:20:27;102520.25;;;10.89;100.00
29549;BME280;16487;53.094;8.800;2023-04-01T08:22:59;102470.03;;;10.96;100.00
29549;BME280;16487;53.094;8.800;2023-04-01T08:25:33;102434.88;;;11.20;100.00
29549;BME280;16487;53.094;8.800;2023-04-01T08:28:10;102386.09;;;11.38;100.00
29549;BME280;16487;53.094;8.800;2023-04-01T08:30:42;102300.06;;;11.26;100.00
29549;BME280;16487;53.094;8.800;2023-04-01T08:33:17;102247.59;;;11.51;100.00
29549;BME280;16487;53.094;8.800;2023-04-01T08:35:52;102135.69;;;11.35;100.00
29549;BME280;16487;53.094;8.800;2023-04-01T08:38:26;102070.19;;;11.43;100.00
29549;BME280;16487;53.094;8.800;2023-04-01T08:41:03;102017.06;;;11.50;100.00
29549;BME280;16487;53.094;8.800;2023-04-01T08:47:13;101787.75;;;11.48;100.00
29549;BME280;16487;53.094;8.800;2023-04-01T08:50:05;101709.25;;;11.70;100.00
29549;BME280;16487;53.094;8.800;2023-04-01T08:52:53;101574.97;;;11.41;100.00
29549;BME280;16487;53.094;8.800;2023-04-01T08:55:36;101522.00;;;11.37;100.00
29549;BME280;16487;53.094;8.800;2023-04-01T08:58:42;101502.59;;;11.30;100.00
29549;BME280;16487;53.094;8.800;2023-04-01T09:01:42;101504.09;;;11.35;100.00
29549;BME280;16487;53.094;8.800;2023-04-01T09:04:57;101479.94;;;11.84;100.00
29549;BME280;16487;53.094;8.800;2023-04-01T09:07:35;101406.28;;;11.94;100.00
29549;BME280;16487;53.094;8.800;2023-04-01T09:10:21;101301.97;;;11.68;100.00
29549;BME280;16487;53.094;8.800;2023-04-01T09:12:59;101238.84;;;11.87;100.00
29549;BME280;16487;53.094;8.800;2023-04-01T09:15:47;101189.03;;;11.85;100.00
29549;BME280;16487;53.094;8.800;2023-04-01T09:21:57;101101.66;;;11.85;100.00
29549;BME280;16487;53.094;8.800;2023-04-01T09:24:40;101061.69;;;12.13;100.00
29549;BME280;16487;53.094;8.800;2023-04-01T09:27:17;101020.47;;;12.17;100.00
29549;BME280;16487;53.094;8.800;2023-04-01T09:30:03;100932.59;;;12.18;100.00
29549;BME280;16487;53.094;8.800;2023-04-01T09:32:57;100917.69;;;12.46;100.00
29549;BME280;16487;53.094;8.800;2023-04-01T09:35:39;100866.72;;;12.85;100.00
29549;BME280;16487;53.094;8.800;2023-04-01T09:38:20;100805.47;;;12.78;100.00
29549;BME280;16487;53.094;8.800;2023-04-01T09:40:55;100739.22;;;12.97;100.00
29549;BME280;16487;53.094;8.800;2023-04-01T09:43:54;100692.84;;;13.17;100.00
29549;BME280;16487;53.094;8.800;2023-04-01T09:46:46;100612.19;;;13.52;100.00
29549;BME280;16487;53.094;8.800;2023-04-01T09:49:40;100502.19;;;13.60;100.00
29549;BME280;16487;53.094;8.800;2023-04-01T09:52:24;100404.75;;;13.73;100.00
29549;BME280;16487;53.094;8.800;2023-04-01T09:55:30;100285.59;;;13.07;100.00
29549;BME280;16487;53.094;8.800;2023-04-01T10:01:44;100216.19;;;13.44;100.00
29549;BME280;16487;53.094;8.800;2023-04-01T10:07:56;100072.84;;;13.02;100.00
29549;BME280;16487;53.094;8.800;2023-04-01T10:11:04;100053.91;;;12.64;100.00
29549;BME280;16487;53.094;8.800;2023-04-01T10:16:50;100055.47;;;11.54;100.00
29549;BME280;16487;53.094;8.800;2023-04-01T10:20:09;100081.84;;;10.60;100.00
29549;BME280;16487;53.094;8.800;2023-04-01T10:26:11;100220.66;;;10.09;100.00
29549;BME280;16487;53.094;8.800;2023-04-01T10:29:07;100269.53;;;10.10;100.00
29549;BME280;16487;53.094;8.800;2023-04-01T10:35:01;100316.88;;;9.97;100.00
29549;BME280;16487;53.094;8.800;2023-04-01T10:37:43;100315.91;;;9.91;100.00
29549;BME280;16487;53.094;8.800;2023-04-01T10:40:35;100326.34;;;10.12;100.00
29549;BME280;16487;53.094;8.800;2023-04-01T10:43:40;100302.56;;;9.86;100.00
29549;BME280;16487;53.094;8.800;2023-04-01T10:56:33;100275.00;;;10.01;100.00
29549;BME280;16487;53.094;8.800;2023-04-01T11:00:02;100250.16;;;9.72;100.00
29549;BME280;16487;53.094;8.800;2023-04-01T11:03:46;100246.69;;;9.81;100.00
29549;BME280;16487;53.094;8.800;2023-04-01T11:07:02;100232.28;;;9.95;100.00
29549;BME280;16487;53.094;8.800;2023-04-01T11:10:06;100198.88;;;9.95;100.00
29549;BME280;16487;53.094;8.800;2023-04-01T11:13:13;100139.50;;;9.98;100.00
29549;BME280;16487;53.094;8.800;2023-04-01T11:22:07;99964.97;;;9.77;100.00
29549;BME280;16487;53.094;8.800;2023-04-01T11:25:01;99929.66;;;9.56;100.00
29549;BME280;16487;53.094;8.800;2023-04-01T11:28:06;99897.44;;;9.76;100.00
29549;BME280;16487;53.094;8.800;2023-04-01T11:30:49;99872.78;;;9.57;100.00
29549;BME280;16487;53.094;8.800;2023-04-01T11:33:23;99858.81;;;9.48;100.00
29549;BME280;16487;53.094;8.800;2023-04-01T11:36:00;99847.22;;;9.40;100.00
29549;BME280;16487;53.094;8.800;2023-04-01T11:38:55;99827.25;;;9.33;100.00
29549;BME280;16487;53.094;8.800;2023-04-01T11:41:47;99803.91;;;9.30;100.00
29549;BME280;16487;53.094;8.800;2023-04-01T11:44:58;99805.59;;;9.27;100.00
29549;BME280;16487;53.094;8.800;2023-04-01T11:47:49;99819.84;;;9.30;100.00
29549;BME280;16487;53.094;8.800;2023-04-01T11:50:28;99823.81;;;9.28;100.00
29549;BME280;16487;53.094;8.800;2023-04-01T11:53:15;99805.06;;;9.11;100.00
29549;BME280;16487;53.094;8.800;2023-04-01T11:55:55;99806.44;;;9.06;100.00
29549;BME280;16487;53.094;8.800;2023-04-01T11:58:42;99806.44;;;9.06;100.00
29549;BME280;16487;53.094;8.800;2023-04-01T12:01:23;99804.06;;;8.96;100.00
29549;BME280;16487;53.094;8.800;2023-04-01T12:04:12;99800.47;;;9.17;100.00
29549;BME280;16487;53.094;8.800;2023-04-01T12:06:51;99804.28;;;9.10;100.00
29549;BME280;16487;53.094;8.800;2023-04-01T12:09:34;99785.31;;;9.18;100.00
29549;BME280;16487;53.094;8.800;2023-04-01T12:12:15;99773.72;;;9.10;100.00
29549;BME280;16487;53.094;8.800;2023-04-01T12:14:57;99758.72;;;9.08;100.00
29549;BME280;16487;53.094;8.800;2023-04-01T12:17:34;99765.19;;;9.45;100.00
29549;BME280;16487;53.094;8.800;2023-04-01T12:20:25;99740.88;;;9.27;100.00
29549;BME280;16487;53.094;8.800;2023-04-01T12:23:03;99715.59;;;9.43;100.00
29549;BME280;16487;53.094;8.800;2023-04-01T12:26:01;99705.09;;;9.38;100.00
29549;BME280;16487;53.094;8.800;2023-04-01T12:28:43;99708.47;;;9.42;100.00
29549;BME280;16487;53.094;8.800;2023-04-01T12:31:30;99687.16;;;9.39;100.00
29549;BME280;16487;53.094;8.800;2023-04-01T12:34:20;99668.44;;;9.31;100.00
29549;BME280;16487;53.094;8.800;2023-04-01T12:36:58;99656.72;;;9.17;100.00
29549;BME280;16487;53.094;8.800;2023-04-01T12:39:44;99643.72;;;9.05;100.00
29549;BME280;16487;53.094;8.800;2023-04-01T12:42:24;99647.66;;;8.95;100.00
29549;BME280;16487;53.094;8.800;2023-04-01T12:45:11;99638.44;;;9.07;100.00
29549;BME280;16487;53.094;8.800;2023-04-01T12:48:01;99627.50;;;9.13;100.00
29549;BME280;16487;53.094;8.800;2023-04-01T12:50:48;99619.66;;;9.30;100.00
29549;BME280;16487;53.094;8.800;2023-04-01T12:53:35;99621.50;;;9.60;100.00
29549;BME280;16487;53.094;8.800;2023-04-01T12:56:12;99599.25;;;9.23;100.00
29549;BME280;16487;53.094;8.800;2023-04-01T12:59:10;99593.72;;;9.33;100.00
29549;BME280;16487;53.094;8.800;2023-04-01T13:01:56;99580.72;;;9.39;100.00
29549;BME280;16487;53.094;8.800;2023-04-01T13:07:45;99564.38;;;9.22;100.00
29549;BME280;16487;53.094;8.800;2023-04-01T13:10:31;99547.22;;;9.15;100.00
29549;BME280;16487;53.094;8.800;2023-04-01T13:13:22;99549.66;;;9.13;100.00
29549;BME280;16487;53.094;8.800;2023-04-01T13:15:58;99522.97;;;9.24;100.00
29549;BME280;16487;53.094;8.800;2023-04-01T13:22:45;99497.28;;;9.57;100.00
29549;BME280;16487;53.094;8.800;2023-04-01T13:25:22;99439.84;;;9.45;100.00
29549;BME280;16487;53.094;8.800;2023-04-01T13:27:56;99416.34;;;9.46;100.00
29549;BME280;16487;53.094;8.800;2023-04-01T13:30:27;99427.78;;;9.39;100.00
29549;BME280;16487;53.094;8.800;2023-04-01T13:33:01;99423.97;;;9.18;100.00
29549;BME280;16487;53.094;8.800;2023-04-01T13:35:38;99433.88;;;9.01;100.00
29549;BME280;16487;53.094;8.800;2023-04-01T13:38:28;99445.94;;;8.89;100.00
29549;BME280;16487;53.094;8.800;2023-04-01T13:41:02;99458.13;;;8.82;100.00
29549;BME280;16487;53.094;8.800;2023-04-01T13:43:36;99476.97;;;8.87;100.00
29549;BME280;16487;53.094;8.800;2023-04-01T13:46:22;99492.06;;;8.77;100.00
29549;BME280;16487;53.094;8.800;2023-04-01T13:49:19;99511.19;;;8.66;100.00
29549;BME280;16487;53.094;8.800;2023-04-01T13:55:14;99543.72;;;8.57;100.00
29549;BME280;16487;53.094;8.800;2023-04-01T13:58:10;99572.41;;;8.63;100.00
29549;BME280;16487;53.094;8.800;2023-04-01T14:00:53;99590.16;;;8.56;100.00
29549;BME280;16487;53.094;8.800;2023-04-01T14:03:29;99593.25;;;8.58;100.00
29549;BME280;16487;53.094;8.800;2023-04-01T14:06:19;99596.75;;;8.50;100.00
29549;BME280;16487;53.094;8.800;2023-04-01T14:09:24;99608.63;;;8.50;100.00
29549;BME280;16487;53.094;8.800;2023-04-01T14:12:04;99636.91;;;8.58;100.00
29549;BME280;16487;53.094;8.800;2023-04-01T14:14:44;99648.81;;;8.67;100.00
29549;BME280;16487;53.094;8.800;2023-04-01T14:20:27;99687.16;;;8.51;100.00
29549;BME280;16487;53.094;8.800;2023-04-01T14:23:11;99696.00;;;8.37;100.00
29549;BME280;16487;53.094;8.800;2023-04-01T14:26:03;99704.34;;;8.37;100.00
29549;BME280;16487;53.094;8.800;2023-04-01T14:28:40;99717.53;;;8.24;100.00
29549;BME280;16487;53.094;8.800;2023-04-01T14:31:27;99733.81;;;8.22;100.00
29549;BME280;16487;53.094;8.800;2023-04-01T14:34:06;99749.38;;;8.19;100.00
29549;BME280;16487;53.094;8.800;2023-04-01T14:36:53;99759.84;;;8.15;100.00
29549;BME280;16487;53.094;8.800;2023-04-01T14:39:38;99771.50;;;8.10;100.00
29549;BME280;16487;53.094;8.800;2023-04-01T14:42:31;99791.94;;;8.03;100.00
29549;BME280;16487;53.094;8.800;2023-04-01T14:45:41;99797.72;;;7.96;100.00
29549;BME280;16487;53.094;8.800;2023-04-01T14:48:23;99804.41;;;7.86;100.00